sensor_id;sensor_type;location;lat;lon;timestamp;temperature;humidity
47350;DHT22;33088;51.982;5.872;2023-04-25T00:01:38;6.20;99.90
47350;DHT22;33088;51.982;5.872;2023-04-25T00:04:04;6.10;99.90
47350;DHT22;33088;51.982;5.872;2023-04-25T00:06:32;6.10;99.90
47350;DHT22;33088;51.982;5.872;2023-04-25T00:08:58;6.00;99.90
47350;DHT22;33088;51.982;5.872;2023-04-25T00:11:24;6.00;99.90
47350;DHT22;33088;51.982;5.872;2023-04-25T00:13:50;5.90;99.90
47350;DHT22;33088;51.982;5.872;2023-04-25T00:16:18;5.90;99.90
47350;DHT22;33088;51.982;5.872;2023-04-25T00:18:44;5.60;99.90
47350;DHT22;33088;51.982;5.872;2023-04-25T00:21:11;6.10;99.90
47350;DHT22;33088;51.982;5.872;2023-04-25T00:23:37;5.80;99.90
47350;DHT22;33088;51.982;5.872;2023-04-25T00:26:04;5.80;99.90
47350;DHT22;33088;51.982;5.872;2023-04-25T00:28:30;5.80;99.90
47350;DHT22;33088;51.982;5.872;2023-04-25T00:30:55;5.70;99.90
47350;DHT22;33088;51.982;5.872;2023-04-25T00:33:21;5.70;99.90
47350;DHT22;33088;51.982;5.872;2023-04-25T00:35:47;5.70;99.90
47350;DHT22;33088;51.982;5.872;2023-04-25T00:38:16;5.60;99.90
47350;DHT22;33088;51.982;5.872;2023-04-25T00:40:42;5.50;99.90
47350;DHT22;33088;51.982;5.872;2023-04-25T00:43:09;5.50;99.90
47350;DHT22;33088;51.982;5.872;2023-04-25T00:45:38;5.50;99.90
47350;DHT22;33088;51.982;5.872;2023-04-25T00:48:04;5.50;99.90
47350;DHT22;33088;51.982;5.872;2023-04-25T00:50:32;5.60;99.90
47350;DHT22;33088;51.982;5.872;2023-04-25T00:52:58;5.60;99.90
47350;DHT22;33088;51.982;5.872;2023-04-25T00:55:24;5.70;99.90
47350;DHT22;33088;51.982;5.872;2023-04-25T00:57:50;5.70;99.90
47350;DHT22;33088;51.982;5.872;2023-04-25T01:00:16;5.60;99.90
47350;DHT22;33088;51.982;5.872;2023-04-25T01:02:43;5.60;99.90
47350;DHT22;33088;51.982;5.872;2023-04-25T01:05:10;5.60;99.90
47350;DHT22;33088;51.982;5.872;2023-04-25T01:07:37;5.60;99.90
47350;DHT22;33088;51.982;5.872;2023-04-25T01:10:04;5.50;99.90
47350;DHT22;33088;51.982;5.872;2023-04-25T01:12:30;5.50;99.90
47350;DHT22;33088;51.982;5.872;2023-04-25T01:14:57;5.40;99.90
47350;DHT22;33088;51.982;5.872;2023-04-25T01:17:23;5.40;99.90
47350;DHT22;33088;51.982;5.872;2023-04-25T01:19:49;5.40;99.90
47350;DHT22;33088;51.982;5.872;2023-04-25T01:22:16;5.40;99.90
47350;DHT22;33088;51.982;5.872;2023-04-25T01:24:46;5.40;99.90
47350;DHT22;33088;51.982;5.872;2023-04-25T01:27:12;5.70;99.90
47350;DHT22;33088;51.982;5.872;2023-04-25T01:29:39;5.40;99.90
47350;DHT22;33088;51.982;5.872;2023-04-25T01:32:06;5.40;99.90
47350;DHT22;33088;51.982;5.872;2023-04-25T01:34:32;5.50;99.90
47350;DHT22;33088;51.982;5.872;2023-04-25T01:36:59;5.50;99.90
47350;DHT22;33088;51.982;5.872;2023-04-25T01:39:27;5.50;99.90
47350;DHT22;33088;51.982;5.872;2023-04-25T01:41:53;5.50;99.90
47350;DHT22;33088;51.982;5.872;2023-04-25T01:44:21;5.60;99.90
47350;DHT22;33088;51.982;5.872;2023-04-25T01:46:47;5.30;99.90
47350;DHT22;33088;51.982;5.872;2023-04-25T01:49:13;5.50;99.90
47350;DHT22;33088;51.982;5.872;2023-04-25T01:51:40;5.50;99.90
47350;DHT22;33088;51.982;5.872;2023-04-25T01:54:05;5.60;99.90
47350;DHT22;33088;51.982;5.872;2023-04-25T01:56:32;5.60;99.90
47350;DHT22;33088;51.982;5.872;2023-04-25T01:58:59;5.60;99.90
47350;DHT22;33088;51.982;5.872;2023-04-25T02:01:45;5.60;99.90
47350;DHT22;33088;51.982;5.872;2023-04-25T02:04:19;5.60;99.90
47350;DHT22;33088;51.982;5.872;2023-04-25T02:06:45;5.60;99.90
47350;DHT22;33088;51.982;5.872;2023-04-25T02:09:11;5.60;99.90
47350;DHT22;33088;51.982;5.872;2023-04-25T02:11:42;5.60;99.90
47350;DHT22;33088;51.982;5.872;2023-04-25T02:14:28;5.60;99.90
47350;DHT22;33088;51.982;5.872;2023-04-25T02:17:20;5.50;99.90
47350;DHT22;33088;51.982;5.872;2023-04-25T02:19:50;5.50;99.90
47350;DHT22;33088;51.982;5.872;2023-04-25T02:22:16;5.50;99.90
47350;DHT22;33088;51.982;5.872;2023-04-25T02:24:42;5.40;99.90
47350;DHT22;33088;51.982;5.872;2023-04-25T02:27:07;5.40;99.90
47350;DHT22;33088;51.982;5.872;2023-04-25T02:29:34;5.50;99.90
47350;DHT22;33088;51.982;5.872;2023-04-25T02:32:00;5.50;99.90
47350;DHT22;33088;51.982;5.872;2023-04-25T02:34:29;5.40;99.90
47350;DHT22;33088;51.982;5.872;2023-04-25T02:36:55;5.70;99.90
47350;DHT22;33088;51.982;5.872;2023-04-25T02:39:20;5.40;99.90
47350;DHT22;33088;51.982;5.872;2023-04-25T02:41:47;5.40;99.90
47350;DHT22;33088;51.982;5.872;2023-04-25T02:44:13;5.30;99.90
47350;DHT22;33088;51.982;5.872;2023-04-25T02:46:39;5.30;99.90
47350;DHT22;33088;51.982;5.872;2023-04-25T02:49:05;5.30;99.90
47350;DHT22;33088;51.982;5.872;2023-04-25T02:51:31;5.30;99.90
47350;DHT22;33088;51.982;5.872;2023-04-25T02:53:58;5.20;99.90
47350;DHT22;33088;51.982;5.872;2023-04-25T02:56:23;5.10;99.90
47350;DHT22;33088;51.982;5.872;2023-04-25T02:58:51;5.10;99.90
47350;DHT22;33088;51.982;5.872;2023-04-25T03:01:17;5.00;99.90
47350;DHT22;33088;51.982;5.872;2023-04-25T03:03:43;4.90;99.90
47350;DHT22;33088;51.982;5.872;2023-04-25T03:06:08;4.90;99.90
47350;DHT22;33088;51.982;5.872;2023-04-25T03:08:36;4.80;99.90
47350;DHT22;33088;51.982;5.872;2023-04-25T03:11:01;4.80;99.90
47350;DHT22;33088;51.982;5.872;2023-04-25T03:13:28;4.70;99.90
47350;DHT22;33088;51.982;5.872;2023-04-25T03:15:56;4.70;99.90
47350;DHT22;33088;51.982;5.872;2023-04-25T03:18:21;4.70;99.90
47350;DHT22;33088;51.982;5.872;2023-04-25T03:20:47;4.60;99.90
47350;DHT22;33088;51.982;5.872;2023-04-25T03:23:13;4.60;99.90
47350;DHT22;33088;51.982;5.872;2023-04-25T03:25:41;4.50;99.90
47350;DHT22;33088;51.982;5.872;2023-04-25T03:28:07;4.50;99.90
47350;DHT22;33088;51.982;5.872;2023-04-25T03:30:35;4.50;99.90
47350;DHT22;33088;51.982;5.872;2023-04-25T03:33:01;4.50;99.90
47350;DHT22;33088;51.982;5.872;2023-04-25T03:35:27;4.50;99.90
47350;DHT22;33088;51.982;5.872;2023-04-25T03:37:53;4.50;99.90
47350;DHT22;33088;51.982;5.872;2023-04-25T03:40:24;4.40;99.90
47350;DHT22;33088;51.982;5.872;2023-04-25T03:43:05;4.50;99.90
47350;DHT22;33088;51.982;5.872;2023-04-25T03:45:32;4.50;99.90
47350;DHT22;33088;51.982;5.872;2023-04-25T03:47:58;4.50;99.90
47350;DHT22;33088;51.982;5.872;2023-04-25T03:50:26;4.50;99.90
47350;DHT22;33088;51.982;5.872;2023-04-25T03:52:53;4.60;99.90
47350;DHT22;33088;51.982;5.872;2023-04-25T03:55:19;4.60;99.90
47350;DHT22;33088;51.982;5.872;2023-04-25T03:57:45;4.50;99.90
47350;DHT22;33088;51.982;5.872;2023-04-25T04:00:11;4.50;99.90
47350;DHT22;33088;51.982;5.872;2023-04-25T04:02:39;4.40;99.90
47350;DHT22;33088;51.982;5.872;2023-04-25T04:05:07;4.40;99.90
47350;DHT22;33088;51.982;5.872;2023-04-25T04:07:36;4.40;99.90
47350;DHT22;33088;51.982;5.872;2023-04-25T04:10:10;4.30;99.90
47350;DHT22;33088;51.982;5.872;2023-04-25T04:12:41;4.30;99.90
47350;DHT22;33088;51.982;5.872;2023-04-25T04:15:07;4.30;99.90
47350;DHT22;33088;51.982;5.872;2023-04-25T04:17:34;4.20;99.90
47350;DHT22;33088;51.982;5.872;2023-04-25T04:20:00;4.20;99.90
47350;DHT22;33088;51.982;5.872;2023-04-25T04:22:28;4.20;99.90
47350;DHT22;33088;51.982;5.872;2023-04-25T04:24:58;4.20;99.90
47350;DHT22;33088;51.982;5.872;2023-04-25T04:27:43;4.20;99.90
47350;DHT22;33088;51.982;5.872;2023-04-25T04:30:24;4.10;99.90
47350;DHT22;33088;51.982;5.872;2023-04-25T04:32:56;4.10;99.90
47350;DHT22;33088;51.982;5.872;2023-04-25T04:35:23;4.20;99.90
47350;DHT22;33088;51.982;5.872;2023-04-25T04:37:50;4.10;99.90
47350;DHT22;33088;51.982;5.872;2023-04-25T04:40:18;4.10;99.90
47350;DHT22;33088;51.982;5.872;2023-04-25T04:43:06;4.10;99.90
47350;DHT22;33088;51.982;5.872;2023-04-25T04:45:45;4.10;99.90
47350;DHT22;33088;51.982;5.872;2023-04-25T04:48:30;4.10;99.90
47350;DHT22;33088;51.982;5.872;2023-04-25T04:51:17;4.20;99.90
47350;DHT22;33088;51.982;5.872;2023-04-25T04:53:50;4.20;99.90
47350;DHT22;33088;51.982;5.872;2023-04-25T04:56:33;4.30;99.90
47350;DHT22;33088;51.982;5.872;2023-04-25T04:59:19;4.30;99.90
47350;DHT22;33088;51.982;5.872;2023-04-25T05:02:08;4.40;99.90
47350;DHT22;33088;51.982;5.872;2023-04-25T05:04:46;4.40;99.90
47350;DHT22;33088;51.982;5.872;2023-04-25T05:07:33;4.40;99.90
47350;DHT22;33088;51.982;5.872;2023-04-25T05:10:19;4.60;99.90
47350;DHT22;33088;51.982;5.872;2023-04-25T05:13:06;4.60;99.90
47350;DHT22;33088;51.982;5.872;2023-04-25T05:15:50;4.60;99.90
47350;DHT22;33088;51.982;5.872;2023-04-25T05:18:33;4.70;99.90
47350;DHT22;33088;51.982;5.872;2023-04-25T05:21:17;4.70;99.90
47350;DHT22;33088;51.982;5.872;2023-04-25T05:24:11;4.80;99.90
47350;DHT22;33088;51.982;5.872;2023-04-25T05:26:56;4.90;99.90
47350;DHT22;33088;51.982;5.872;2023-04-25T05:29:37;4.90;99.90
47350;DHT22;33088;51.982;5.872;2023-04-25T05:32:19;4.90;99.90
47350;DHT22;33088;51.982;5.872;2023-04-25T05:34:46;5.00;99.90
47350;DHT22;33088;51.982;5.872;2023-04-25T05:37:21;5.10;99.90
47350;DHT22;33088;51.982;5.872;2023-04-25T05:39:54;5.10;99.90
47350;DHT22;33088;51.982;5.872;2023-04-25T05:42:35;5.20;99.90
47350;DHT22;33088;51.982;5.872;2023-04-25T05:45:19;5.30;99.90
47350;DHT22;33088;51.982;5.872;2023-04-25T05:47:53;5.30;99.90
47350;DHT22;33088;51.982;5.872;2023-04-25T05:50:32;5.30;99.90
47350;DHT22;33088;51.982;5.872;2023-04-25T05:53:03;5.30;99.90
47350;DHT22;33088;51.982;5.872;2023-04-25T05:55:38;5.30;99.90
47350;DHT22;33088;51.982;5.872;2023-04-25T05:58:20;5.60;99.90
47350;DHT22;33088;51.982;5.872;2023-04-25T06:00:46;5.40;99.90
47350;DHT22;33088;51.982;5.872;2023-04-25T06:03:12;5.50;99.90
47350;DHT22;33088;51.982;5.872;2023-04-25T06:05:43;5.60;99.90
47350;DHT22;33088;51.982;5.872;2023-04-25T06:08:10;5.80;99.90
47350;DHT22;33088;51.982;5.872;2023-04-25T06:10:37;5.80;99.90
47350;DHT22;33088;51.982;5.872;2023-04-25T06:13:03;6.00;99.90
47350;DHT22;33088;51.982;5.872;2023-04-25T06:15:30;6.00;99.90
47350;DHT22;33088;51.982;5.872;2023-04-25T06:17:59;6.00;99.90
47350;DHT22;33088;51.982;5.872;2023-04-25T06:20:25;6.00;99.90
47350;DHT22;33088;51.982;5.872;2023-04-25T06:22:52;6.00;99.90
47350;DHT22;33088;51.982;5.872;2023-04-25T06:25:20;6.00;99.90
47350;DHT22;33088;51.982;5.872;2023-04-25T06:27:46;6.00;99.90
47350;DHT22;33088;51.982;5.872;2023-04-25T06:30:12;6.00;99.90
47350;DHT22;33088;51.982;5.872;2023-04-25T06:32:38;6.20;99.90
47350;DHT22;33088;51.982;5.872;2023-04-25T06:35:05;6.30;99.90
47350;DHT22;33088;51.982;5.872;2023-04-25T06:37:32;6.40;99.90
47350;DHT22;33088;51.982;5.872;2023-04-25T06:39:58;6.40;99.90
47350;DHT22;33088;51.982;5.872;2023-04-25T06:42:23;6.50;99.90
47350;DHT22;33088;51.982;5.872;2023-04-25T06:44:59;6.50;99.90
47350;DHT22;33088;51.982;5.872;2023-04-25T06:47:27;6.60;99.90
47350;DHT22;33088;51.982;5.872;2023-04-25T06:49:52;6.80;99.90
47350;DHT22;33088;51.982;5.872;2023-04-25T06:52:19;7.00;99.90
47350;DHT22;33088;51.982;5.872;2023-04-25T06:54:46;7.10;99.90
47350;DHT22;33088;51.982;5.872;2023-04-25T06:57:34;6.90;99.90
47350;DHT22;33088;51.982;5.872;2023-04-25T07:00:18;7.10;99.90
47350;DHT22;33088;51.982;5.872;2023-04-25T07:02:43;7.20;99.90
47350;DHT22;33088;51.982;5.872;2023-04-25T07:05:09;7.20;99.90
47350;DHT22;33088;51.982;5.872;2023-04-25T07:07:35;7.20;99.90
47350;DHT22;33088;51.982;5.872;2023-04-25T07:10:01;7.10;99.90
47350;DHT22;33088;51.982;5.872;2023-04-25T07:12:27;7.10;99.90
47350;DHT22;33088;51.982;5.872;2023-04-25T07:14:53;7.00;99.90
47350;DHT22;33088;51.982;5.872;2023-04-25T07:17:18;7.10;99.90
47350;DHT22;33088;51.982;5.872;2023-04-25T07:19:45;7.10;99.90
47350;DHT22;33088;51.982;5.872;2023-04-25T07:22:10;7.20;99.90
47350;DHT22;33088;51.982;5.872;2023-04-25T07:24:39;7.20;99.90
47350;DHT22;33088;51.982;5.872;2023-04-25T07:27:05;7.30;99.90
47350;DHT22;33088;51.982;5.872;2023-04-25T07:29:57;7.40;99.90
47350;DHT22;33088;51.982;5.872;2023-04-25T07:32:25;7.80;99.90
47350;DHT22;33088;51.982;5.872;2023-04-25T07:34:51;7.70;99.90
47350;DHT22;33088;51.982;5.872;2023-04-25T07:37:17;7.90;99.90
47350;DHT22;33088;51.982;5.872;2023-04-25T07:39:57;8.00;99.90
47350;DHT22;33088;51.982;5.872;2023-04-25T07:42:23;8.00;99.90
47350;DHT22;33088;51.982;5.872;2023-04-25T07:44:48;8.00;99.90
47350;DHT22;33088;51.982;5.872;2023-04-25T07:47:14;8.00;99.90
47350;DHT22;33088;51.982;5.872;2023-04-25T07:49:41;7.90;99.90
47350;DHT22;33088;51.982;5.872;2023-04-25T07:52:06;8.00;99.90
47350;DHT22;33088;51.982;5.872;2023-04-25T07:54:35;8.10;99.90
47350;DHT22;33088;51.982;5.872;2023-04-25T07:57:08;8.10;99.90
47350;DHT22;33088;51.982;5.872;2023-04-25T07:59:34;8.30;99.90
47350;DHT22;33088;51.982;5.872;2023-04-25T08:02:02;8.40;99.90
47350;DHT22;33088;51.982;5.872;2023-04-25T08:04:28;8.50;99.90
47350;DHT22;33088;51.982;5.872;2023-04-25T08:06:59;8.40;99.90
47350;DHT22;33088;51.982;5.872;2023-04-25T08:09:28;8.30;99.90
47350;DHT22;33088;51.982;5.872;2023-04-25T08:11:59;8.20;99.90
47350;DHT22;33088;51.982;5.872;2023-04-25T08:14:30;8.00;99.90
47350;DHT22;33088;51.982;5.872;2023-04-25T08:17:01;7.90;99.90
47350;DHT22;33088;51.982;5.872;2023-04-25T08:19:29;8.00;99.90
47350;DHT22;33088;51.982;5.872;2023-04-25T08:21:55;8.00;99.90
47350;DHT22;33088;51.982;5.872;2023-04-25T08:24:27;8.20;99.90
47350;DHT22;33088;51.982;5.872;2023-04-25T08:26:53;8.30;99.90
47350;DHT22;33088;51.982;5.872;2023-04-25T08:29:21;8.50;99.90
47350;DHT22;33088;51.982;5.872;2023-04-25T08:31:48;8.90;99.90
47350;DHT22;33088;51.982;5.872;2023-04-25T08:34:14;9.00;99.90
47350;DHT22;33088;51.982;5.872;2023-04-25T08:36:47;9.00;99.90
47350;DHT22;33088;51.982;5.872;2023-04-25T08:39:38;8.80;99.90
47350;DHT22;33088;51.982;5.872;2023-04-25T08:42:21;8.60;99.90
47350;DHT22;33088;51.982;5.872;2023-04-25T08:44:48;8.50;99.90
47350;DHT22;33088;51.982;5.872;2023-04-25T08:47:14;8.40;99.90
47350;DHT22;33088;51.982;5.872;2023-04-25T08:49:52;8.30;99.90
47350;DHT22;33088;51.982;5.872;2023-04-25T08:52:22;8.50;99.90
47350;DHT22;33088;51.982;5.872;2023-04-25T08:54:49;8.40;99.90
47350;DHT22;33088;51.982;5.872;2023-04-25T08:57:18;8.60;99.90
47350;DHT22;33088;51.982;5.872;2023-04-25T08:59:46;8.60;99.90
47350;DHT22;33088;51.982;5.872;2023-04-25T09:02:15;8.70;99.90
47350;DHT22;33088;51.982;5.872;2023-04-25T09:04:47;8.50;99.90
47350;DHT22;33088;51.982;5.872;2023-04-25T09:07:17;8.40;99.90
47350;DHT22;33088;51.982;5.872;2023-04-25T09:09:46;8.30;99.90
47350;DHT22;33088;51.982;5.872;2023-04-25T09:12:18;8.30;99.90
47350;DHT22;33088;51.982;5.872;2023-04-25T09:15:07;8.10;99.90
47350;DHT22;33088;51.982;5.872;2023-04-25T09:17:57;7.90;99.90
47350;DHT22;33088;51.982;5.872;2023-04-25T09:20:26;7.90;99.90
47350;DHT22;33088;51.982;5.872;2023-04-25T09:23:02;7.90;99.90
47350;DHT22;33088;51.982;5.872;2023-04-25T09:25:37;8.10;99.90
47350;DHT22;33088;51.982;5.872;2023-04-25T09:28:06;8.40;99.90
47350;DHT22;33088;51.982;5.872;2023-04-25T09:30:34;8.50;99.90
47350;DHT22;33088;51.982;5.872;2023-04-25T09:33:12;8.30;99.90
47350;DHT22;33088;51.982;5.872;2023-04-25T09:35:45;8.40;99.90
47350;DHT22;33088;51.982;5.872;2023-04-25T09:38:24;8.10;99.90
47350;DHT22;33088;51.982;5.872;2023-04-25T09:41:07;7.90;99.90
47350;DHT22;33088;51.982;5.872;2023-04-25T09:43:40;7.90;99.90
47350;DHT22;33088;51.982;5.872;2023-04-25T09:46:10;8.00;99.90
47350;DHT22;33088;51.982;5.872;2023-04-25T09:48:40;8.20;99.90
47350;DHT22;33088;51.982;5.872;2023-04-25T09:51:14;8.50;99.90
47350;DHT22;33088;51.982;5.872;2023-04-25T09:53:43;8.70;99.90
47350;DHT22;33088;51.982;5.872;2023-04-25T09:56:19;9.00;99.90
47350;DHT22;33088;51.982;5.872;2023-04-25T09:58:47;9.00;99.90
47350;DHT22;33088;51.982;5.872;2023-04-25T10:01:15;9.20;99.90
47350;DHT22;33088;51.982;5.872;2023-04-25T10:04:01;9.50;99.90
47350;DHT22;33088;51.982;5.872;2023-04-25T10:06:44;10.10;99.90
47350;DHT22;33088;51.982;5.872;2023-04-25T10:09:12;10.10;99.90
47350;DHT22;33088;51.982;5.872;2023-04-25T10:11:39;10.00;99.90
47350;DHT22;33088;51.982;5.872;2023-04-25T10:14:06;9.90;99.90
47350;DHT22;33088;51.982;5.872;2023-04-25T10:16:32;9.60;99.90
47350;DHT22;33088;51.982;5.872;2023-04-25T10:18:57;9.40;99.90
47350;DHT22;33088;51.982;5.872;2023-04-25T10:21:24;9.10;99.90
47350;DHT22;33088;51.982;5.872;2023-04-25T10:23:52;9.10;99.90
47350;DHT22;33088;51.982;5.872;2023-04-25T10:26:19;9.10;99.90
47350;DHT22;33088;51.982;5.872;2023-04-25T10:29:01;9.30;99.90
47350;DHT22;33088;51.982;5.872;2023-04-25T10:31:29;9.40;99.90
47350;DHT22;33088;51.982;5.872;2023-04-25T10:33:55;9.50;99.90
47350;DHT22;33088;51.982;5.872;2023-04-25T10:36:25;9.50;99.90
47350;DHT22;33088;51.982;5.872;2023-04-25T10:38:52;9.30;99.90
47350;DHT22;33088;51.982;5.872;2023-04-25T10:41:20;9.20;99.90
47350;DHT22;33088;51.982;5.872;2023-04-25T10:43:50;9.10;99.90
47350;DHT22;33088;51.982;5.872;2023-04-25T10:46:28;8.90;99.90
47350;DHT22;33088;51.982;5.872;2023-04-25T10:49:01;8.90;99.90
47350;DHT22;33088;51.982;5.872;2023-04-25T10:51:34;9.10;99.90
47350;DHT22;33088;51.982;5.872;2023-04-25T10:54:02;9.30;99.90
47350;DHT22;33088;51.982;5.872;2023-04-25T10:56:33;9.50;99.90
47350;DHT22;33088;51.982;5.872;2023-04-25T10:59:14;9.80;99.90
47350;DHT22;33088;51.982;5.872;2023-04-25T11:01:42;10.20;99.90
47350;DHT22;33088;51.982;5.872;2023-04-25T11:04:25;10.50;99.90
47350;DHT22;33088;51.982;5.872;2023-04-25T11:09:45;10.70;99.90
47350;DHT22;33088;51.982;5.872;2023-04-25T11:12:11;10.80;99.90
47350;DHT22;33088;51.982;5.872;2023-04-25T11:14:38;10.90;99.90
47350;DHT22;33088;51.982;5.872;2023-04-25T11:17:03;11.50;99.90
47350;DHT22;33088;51.982;5.872;2023-04-25T11:19:29;11.20;99.90
47350;DHT22;33088;51.982;5.872;2023-04-25T11:21:56;11.40;99.90
47350;DHT22;33088;51.982;5.872;2023-04-25T11:24:32;11.30;99.90
47350;DHT22;33088;51.982;5.872;2023-04-25T11:26:59;11.00;99.90
47350;DHT22;33088;51.982;5.872;2023-04-25T11:29:31;10.80;99.90
47350;DHT22;33088;51.982;5.872;2023-04-25T11:31:57;11.00;99.20
47350;DHT22;33088;51.982;5.872;2023-04-25T11:34:27;10.60;99.90
47350;DHT22;33088;51.982;5.872;2023-04-25T11:36:56;10.90;99.90
47350;DHT22;33088;51.982;5.872;2023-04-25T11:39:24;11.00;99.90
47350;DHT22;33088;51.982;5.872;2023-04-25T11:41:50;11.10;99.90
47350;DHT22;33088;51.982;5.872;2023-04-25T11:44:17;11.00;99.90
47350;DHT22;33088;51.982;5.872;2023-04-25T11:46:43;10.70;99.90
47350;DHT22;33088;51.982;5.872;2023-04-25T11:49:09;10.20;99.90
47350;DHT22;33088;51.982;5.872;2023-04-25T11:51:39;10.10;99.90
47350;DHT22;33088;51.982;5.872;2023-04-25T11:54:05;10.40;99.90
47350;DHT22;33088;51.982;5.872;2023-04-25T11:56:33;10.70;99.90
47350;DHT22;33088;51.982;5.872;2023-04-25T11:59:01;11.00;99.90
47350;DHT22;33088;51.982;5.872;2023-04-25T12:01:29;11.30;99.90
47350;DHT22;33088;51.982;5.872;2023-04-25T12:03:56;11.40;99.90
47350;DHT22;33088;51.982;5.872;2023-04-25T12:06:25;11.20;99.90
47350;DHT22;33088;51.982;5.872;2023-04-25T12:09:07;10.80;99.90
47350;DHT22;33088;51.982;5.872;2023-04-25T12:14:10;10.10;99.90
47350;DHT22;33088;51.982;5.872;2023-04-25T12:16:43;9.50;99.90
47350;DHT22;33088;51.982;5.872;2023-04-25T12:19:09;9.30;99.90
47350;DHT22;33088;51.982;5.872;2023-04-25T12:21:35;8.90;99.90
47350;DHT22;33088;51.982;5.872;2023-04-25T12:24:21;8.90;99.90
47350;DHT22;33088;51.982;5.872;2023-04-25T12:29:23;8.70;99.90
47350;DHT22;33088;51.982;5.872;2023-04-25T12:31:51;8.60;99.90
47350;DHT22;33088;51.982;5.872;2023-04-25T12:34:18;8.70;99.90
47350;DHT22;33088;51.982;5.872;2023-04-25T12:36:44;8.70;99.90
47350;DHT22;33088;51.982;5.872;2023-04-25T12:39:18;8.70;99.90
47350;DHT22;33088;51.982;5.872;2023-04-25T12:41:45;9.00;99.90
47350;DHT22;33088;51.982;5.872;2023-04-25T12:44:12;9.40;99.90
47350;DHT22;33088;51.982;5.872;2023-04-25T12:46:38;9.50;99.90
47350;DHT22;33088;51.982;5.872;2023-04-25T12:49:04;9.80;99.90
47350;DHT22;33088;51.982;5.872;2023-04-25T12:51:32;10.10;99.90
47350;DHT22;33088;51.982;5.872;2023-04-25T12:53:59;10.00;99.90
47350;DHT22;33088;51.982;5.872;2023-04-25T12:56:26;10.00;99.90
47350;DHT22;33088;51.982;5.872;2023-04-25T12:58:53;10.30;99.90
47350;DHT22;33088;51.982;5.872;2023-04-25T13:01:19;10.40;99.90
47350;DHT22;33088;51.982;5.872;2023-04-25T13:03:45;10.50;99.90
47350;DHT22;33088;51.982;5.872;2023-04-25T13:06:11;10.60;99.90
47350;DHT22;33088;51.982;5.872;2023-04-25T13:08:38;10.60;99.90
47350;DHT22;33088;51.982;5.872;2023-04-25T13:11:05;10.60;99.90
47350;DHT22;33088;51.982;5.872;2023-04-25T13:13:31;10.80;99.90
47350;DHT22;33088;51.982;5.872;2023-04-25T13:16:00;11.20;99.90
47350;DHT22;33088;51.982;5.872;2023-04-25T13:18:27;11.10;99.90
47350;DHT22;33088;51.982;5.872;2023-04-25T13:20:53;11.10;99.90
47350;DHT22;33088;51.982;5.872;2023-04-25T13:23:19;11.00;99.90
47350;DHT22;33088;51.982;5.872;2023-04-25T13:25:46;11.10;99.90
47350;DHT22;33088;51.982;5.872;2023-04-25T13:28:12;11.00;99.90
47350;DHT22;33088;51.982;5.872;2023-04-25T13:30:38;11.20;99.90
47350;DHT22;33088;51.982;5.872;2023-04-25T13:33:03;11.50;99.90
47350;DHT22;33088;51.982;5.872;2023-04-25T13:35:30;11.60;99.90
47350;DHT22;33088;51.982;5.872;2023-04-25T13:37:56;11.50;99.90
47350;DHT22;33088;51.982;5.872;2023-04-25T13:40:22;11.40;99.90
47350;DHT22;33088;51.982;5.872;2023-04-25T13:42:47;10.90;99.90
47350;DHT22;33088;51.982;5.872;2023-04-25T13:45:13;10.60;99.90
47350;DHT22;33088;51.982;5.872;2023-04-25T13:47:39;10.40;99.90
47350;DHT22;33088;51.982;5.872;2023-04-25T13:50:05;10.40;99.90
47350;DHT22;33088;51.982;5.872;2023-04-25T13:52:31;10.70;99.90
47350;DHT22;33088;51.982;5.872;2023-04-25T13:54:57;10.90;99.90
47350;DHT22;33088;51.982;5.872;2023-04-25T13:57:23;10.80;99.90
47350;DHT22;33088;51.982;5.872;2023-04-25T13:59:48;10.80;99.90
47350;DHT22;33088;51.982;5.872;2023-04-25T14:02:14;10.50;99.90
47350;DHT22;33088;51.982;5.872;2023-04-25T14:04:41;10.10;99.90
47350;DHT22;33088;51.982;5.872;2023-04-25T14:07:06;10.20;99.90
47350;DHT22;33088;51.982;5.872;2023-04-25T14:09:32;10.40;99.90
47350;DHT22;33088;51.982;5.872;2023-04-25T14:11:58;10.60;99.90
47350;DHT22;33088;51.982;5.872;2023-04-25T14:14:23;10.50;99.90
47350;DHT22;33088;51.982;5.872;2023-04-25T14:16:50;10.50;99.90
47350;DHT22;33088;51.982;5.872;2023-04-25T14:19:17;10.30;99.90
47350;DHT22;33088;51.982;5.872;2023-04-25T14:21:43;10.30;99.90
47350;DHT22;33088;51.982;5.872;2023-04-25T14:24:09;10.30;99.90
47350;DHT22;33088;51.982;5.872;2023-04-25T14:26:36;10.30;99.90
47350;DHT22;33088;51.982;5.872;2023-04-25T14:29:05;10.20;99.90
47350;DHT22;33088;51.982;5.872;2023-04-25T14:31:32;10.20;99.90
47350;DHT22;33088;51.982;5.872;2023-04-25T14:33:58;10.20;99.90
47350;DHT22;33088;51.982;5.872;2023-04-25T14:36:23;10.40;99.90
47350;DHT22;33088;51.982;5.872;2023-04-25T14:38:52;10.60;99.90
47350;DHT22;33088;51.982;5.872;2023-04-25T14:41:17;11.00;99.90
47350;DHT22;33088;51.982;5.872;2023-04-25T14:43:43;11.10;99.90
47350;DHT22;33088;51.982;5.872;2023-04-25T14:46:10;11.00;99.90
47350;DHT22;33088;51.982;5.872;2023-04-25T14:48:36;11.10;99.90
47350;DHT22;33088;51.982;5.872;2023-04-25T14:51:02;11.40;99.90
47350;DHT22;33088;51.982;5.872;2023-04-25T14:53:28;11.40;98.80
47350;DHT22;33088;51.982;5.872;2023-04-25T14:55:54;11.60;99.30
47350;DHT22;33088;51.982;5.872;2023-04-25T14:58:19;11.70;98.60
47350;DHT22;33088;51.982;5.872;2023-04-25T15:00:46;11.40;99.40
47350;DHT22;33088;51.982;5.872;2023-04-25T15:03:12;11.00;99.90
47350;DHT22;33088;51.982;5.872;2023-04-25T15:05:39;10.80;99.90
47350;DHT22;33088;51.982;5.872;2023-04-25T15:08:06;10.50;99.90
47350;DHT22;33088;51.982;5.872;2023-04-25T15:10:31;10.40;99.90
47350;DHT22;33088;51.982;5.872;2023-04-25T15:12:57;10.50;99.90
47350;DHT22;33088;51.982;5.872;2023-04-25T15:15:23;10.70;99.90
47350;DHT22;33088;51.982;5.872;2023-04-25T15:17:49;10.70;99.90
47350;DHT22;33088;51.982;5.872;2023-04-25T15:20:16;10.90;99.90
47350;DHT22;33088;51.982;5.872;2023-04-25T15:22:43;10.70;99.90
47350;DHT22;33088;51.982;5.872;2023-04-25T15:25:10;10.50;99.90
47350;DHT22;33088;51.982;5.872;2023-04-25T15:27:37;10.30;99.90
47350;DHT22;33088;51.982;5.872;2023-04-25T15:30:07;9.90;99.90
47350;DHT22;33088;51.982;5.872;2023-04-25T15:32:36;9.80;99.90
47350;DHT22;33088;51.982;5.872;2023-04-25T15:35:04;9.70;99.90
47350;DHT22;33088;51.982;5.872;2023-04-25T15:37:30;9.60;99.90
47350;DHT22;33088;51.982;5.872;2023-04-25T15:40:04;9.50;99.90
47350;DHT22;33088;51.982;5.872;2023-04-25T15:42:37;9.50;99.90
47350;DHT22;33088;51.982;5.872;2023-04-25T15:45:08;9.60;99.90
47350;DHT22;33088;51.982;5.872;2023-04-25T15:47:35;9.70;99.90
47350;DHT22;33088;51.982;5.872;2023-04-25T15:50:03;9.90;99.90
47350;DHT22;33088;51.982;5.872;2023-04-25T15:52:31;10.10;99.90
47350;DHT22;33088;51.982;5.872;2023-04-25T15:54:56;10.20;99.90
47350;DHT22;33088;51.982;5.872;2023-04-25T15:57:22;10.40;99.90
47350;DHT22;33088;51.982;5.872;2023-04-25T15:59:49;10.30;99.90
47350;DHT22;33088;51.982;5.872;2023-04-25T16:02:15;10.10;99.90
47350;DHT22;33088;51.982;5.872;2023-04-25T16:04:41;10.30;99.90